Time;durP1;ratioP1;P1;durP2;ratioP2;P2;SDS_P1;SDS_P2;PMS_P1;PMS_P2;Temp;Humidity;BMP_temperature;BMP_pressure;BME280_temperature;BME280_humidity;BME280_pressure;Samples;Min_cycle;Max_cycle;Signal;HPM_P1;HPM_P2
2021/06/21 00:02:18;;;;;;;10.10;3.40;;;;;;;17.71;41.35;99897.00;4980202;28;20042;-82
2021/06/21 00:04:44;;;;;;;9.07;3.60;;;;;;;17.44;41.32;99856.50;4964548;28;20042;-82
2021/06/21 00:07:10;;;;;;;10.02;4.13;;;;;;;17.64;41.44;99893.19;4996533;28;20069;-84
2021/06/21 00:09:36;;;;;;;13.45;4.05;;;;;;;17.69;41.38;99890.03;4980011;28;20085;-84
2021/06/21 00:12:02;;;;;;;11.32;4.45;;;;;;;17.53;41.50;99866.41;4980425;28;20050;-83
2021/06/21 00:14:28;;;;;;;21.30;4.18;;;;;;;17.67;41.54;99903.69;4979964;28;20125;-85
2021/06/21 00:16:54;;;;;;;9.20;3.92;;;;;;;17.67;41.60;99900.97;4980117;28;20129;-84
2021/06/21 00:19:20;;;;;;;7.93;4.22;;;;;;;17.61;41.44;99898.91;4963605;28;20137;-83
2021/06/21 00:21:46;;;;;;;8.15;4.03;;;;;;;17.59;41.30;99898.19;4979695;28;20043;-84
2021/06/21 00:24:12;;;;;;;9.85;4.28;;;;;;;17.72;41.39;99917.59;4980143;28;20061;-85
2021/06/21 00:26:38;;;;;;;7.15;4.50;;;;;;;17.66;41.19;99915.50;4995944;28;20038;-84
2021/06/21 00:29:04;;;;;;;9.68;3.95;;;;;;;17.70;41.55;99916.06;4979525;28;20077;-84
2021/06/21 00:31:30;;;;;;;7.68;3.65;;;;;;;17.65;41.48;99919.22;4979384;28;20077;-84
2021/06/21 00:33:56;;;;;;;8.88;3.80;;;;;;;17.65;41.62;99919.22;4980306;28;20107;-85
2021/06/21 00:36:22;;;;;;;6.72;3.85;;;;;;;17.46;42.03;99911.25;4995700;28;20077;-84
2021/06/21 00:38:47;;;;;;;5.50;3.80;;;;;;;17.54;41.89;99922.16;4979666;28;20137;-84
2021/06/21 00:41:13;;;;;;;14.40;4.07;;;;;;;17.42;42.01;99901.75;4963651;28;20060;-84
2021/06/21 00:43:39;;;;;;;9.68;4.18;;;;;;;17.41;41.90;99916.25;4979337;28;20070;-84
2021/06/21 00:46:05;;;;;;;13.93;4.03;;;;;;;17.48;42.15;99938.97;4979293;28;20070;-85
2021/06/21 00:48:31;;;;;;;10.02;4.10;;;;;;;17.44;42.17;99933.03;4979054;28;20153;-84
2021/06/21 00:50:57;;;;;;;16.60;5.20;;;;;;;17.40;42.06;99930.78;4995907;28;20538;-85
2021/06/21 00:53:23;;;;;;;13.80;4.30;;;;;;;17.48;42.30;99938.97;4979068;28;20074;-85
2021/06/21 00:55:49;;;;;;;9.05;4.25;;;;;;;17.50;41.88;99928.03;4979527;28;20136;-87
2021/06/21 00:58:15;;;;;;;7.03;4.57;;;;;;;17.50;42.03;99936.97;4963077;28;20493;-85
2021/06/21 01:00:41;;;;;;;8.90;5.53;;;;;;;17.59;41.75;99946.00;4979062;28;20077;-85
2021/06/21 01:03:08;;;;;;;7.43;4.10;;;;;;;17.64;41.76;99941.88;4995174;28;20053;-87
2021/06/21 01:05:35;;;;;;;7.45;4.20;;;;;;;17.61;41.90;99939.47;4962946;28;20048;-88
2021/06/21 01:08:05;;;;;;;10.30;4.68;;;;;;;17.62;41.87;99937.59;4979036;28;20134;-85
2021/06/21 01:10:31;;;;;;;7.30;3.75;;;;;;;17.57;41.94;99935.38;4979096;28;20054;-87
2021/06/21 01:13:32;;;;;;;11.45;3.97;;;;;;;17.66;42.08;99947.94;4978918;28;20050;-87
2021/06/21 01:16:40;;;;;;;10.65;4.25;;;;;;;17.72;42.17;99947.34;4986770;28;20058;-86
2021/06/21 01:19:24;;;;;;;10.35;3.83;;;;;;;17.77;41.93;99955.03;4974255;28;20074;-86
2021/06/21 01:22:14;;;;;;;9.68;4.00;;;;;;;17.71;42.09;99951.06;4961025;28;20053;-87
2021/06/21 01:25:28;;;;;;;11.85;4.53;;;;;;;17.71;41.91;99953.78;4996041;28;20072;-88
2021/06/21 01:28:00;;;;;;;11.80;3.78;;;;;;;17.72;42.07;99960.03;4983987;28;20057;-87
2021/06/21 01:30:59;;;;;;;10.05;4.38;;;;;;;17.79;42.02;99961.16;4964210;28;20042;-86
2021/06/21 01:33:25;;;;;;;14.10;3.88;;;;;;;17.82;41.84;99951.84;4995670;28;20058;-86
2021/06/21 01:35:57;;;;;;;7.82;3.83;;;;;;;17.84;41.65;99966.94;4986919;28;20394;-88
2021/06/21 01:38:26;;;;;;;7.63;4.22;;;;;;;17.84;41.53;99963.38;4966342;28;20042;-88
2021/06/21 01:40:53;;;;;;;8.55;4.05;;;;;;;17.85;41.55;99968.63;4979139;28;20460;-87
2021/06/21 01:43:21;;;;;;;17.25;4.03;;;;;;;17.92;41.69;99987.78;4978439;28;20671;-87
2021/06/21 01:45:46;;;;;;;7.30;3.90;;;;;;;17.80;41.77;99970.09;4979048;28;20054;-87
2021/06/21 01:48:13;;;;;;;6.35;4.03;;;;;;;17.90;41.65;99982.56;4962428;28;20367;-85
2021/06/21 01:50:39;;;;;;;7.45;3.72;;;;;;;18.01;41.52;99992.25;4978503;28;20050;-86
2021/06/21 01:53:13;;;;;;;11.90;5.03;;;;;;;18.04;41.69;99991.13;4979121;28;20046;-87
2021/06/21 01:55:49;;;;;;;7.18;4.32;;;;;;;18.05;41.81;99996.34;4979030;28;20045;-87
2021/06/21 01:58:15;;;;;;;9.40;4.18;;;;;;;18.04;41.88;99989.25;4979738;28;20042;-88
2021/06/21 02:00:41;;;;;;;11.85;4.90;;;;;;;18.08;41.84;99984.38;4994458;28;20512;-87
2021/06/21 02:03:06;;;;;;;10.02;4.13;;;;;;;18.16;41.94;99993.41;4962449;28;20513;-88
2021/06/21 02:05:34;;;;;;;10.25;4.15;;;;;;;18.04;41.92;100008.19;4978600;28;20149;-88
2021/06/21 02:07:59;;;;;;;7.53;3.80;;;;;;;17.87;42.35;100009.06;4980517;28;20458;-86
2021/06/21 02:10:28;;;;;;;6.80;3.45;;;;;;;17.85;42.54;100021.88;4979146;28;20104;-85
2021/06/21 02:12:54;;;;;;;11.48;3.47;;;;;;;17.83;42.43;100013.91;4979135;28;20061;-86
2021/06/21 02:15:23;;;;;;;6.75;3.42;;;;;;;17.90;42.72;100015.00;4977871;28;20046;-83
2021/06/21 02:17:49;;;;;;;8.68;3.67;;;;;;;18.07;42.44;100009.75;4978436;28;20134;-86
2021/06/21 02:20:15;;;;;;;8.35;3.30;;;;;;;18.12;42.25;100021.78;4979399;28;20053;-84
2021/06/21 02:22:42;;;;;;;11.27;3.60;;;;;;;18.19;42.27;100022.03;4978807;28;20061;-84
2021/06/21 02:25:08;;;;;;;14.40;3.97;;;;;;;18.25;41.99;100020.56;4978189;28;20042;-84
2021/06/21 02:27:36;;;;;;;12.63;3.40;;;;;;;18.26;42.23;100020.41;4962282;28;20050;-83
2021/06/21 02:30:12;;;;;;;10.85;4.07;;;;;;;18.36;43.16;100010.34;4965207;28;20034;-86
2021/06/21 02:32:40;;;;;;;9.50;3.33;;;;;;;18.41;41.85;100020.69;4995727;28;20387;-82
2021/06/21 02:35:07;;;;;;;13.40;3.95;;;;;;;18.40;41.84;100002.78;4993301;28;20050;-88
2021/06/21 02:37:35;;;;;;;7.43;3.38;;;;;;;18.52;41.88;100020.44;4978076;28;20124;-88
2021/06/21 02:40:04;;;;;;;5.15;3.03;;;;;;;18.59;41.30;100017.97;4978064;28;20046;-86
2021/06/21 02:42:30;;;;;;;10.88;3.70;;;;;;;18.52;41.13;100015.03;4962726;28;20067;-87
2021/06/21 02:44:56;;;;;;;9.63;3.58;;;;;;;18.44;41.85;100015.81;4995470;28;20085;-86
2021/06/21 02:47:22;;;;;;;7.50;3.47;;;;;;;18.69;41.20;100022.28;4971948;28;20046;-86
2021/06/21 02:49:48;;;;;;;7.75;3.20;;;;;;;18.82;41.43;100018.34;4992128;28;20065;-90
2021/06/21 02:52:29;;;;;;;15.75;4.18;;;;;;;18.93;40.92;100026.19;4984033;28;20061;-86
2021/06/21 02:55:08;;;;;;;18.80;3.75;;;;;;;18.93;41.26;100029.75;4997342;28;20501;-86
2021/06/21 02:57:46;;;;;;;11.43;3.90;;;;;;;19.04;41.45;100033.19;4980859;28;20041;-89
2021/06/21 03:00:12;;;;;;;10.60;4.03;;;;;;;19.06;41.16;100029.31;5011454;28;20074;-86
2021/06/21 03:02:39;;;;;;;6.38;3.88;;;;;;;19.16;40.81;100034.63;4963446;28;20126;-88
2021/06/21 03:05:05;;;;;;;9.30;3.50;;;;;;;19.30;40.80;100038.59;4977214;28;20072;-87
2021/06/21 03:07:31;;;;;;;14.13;4.45;;;;;;;19.42;40.60;100040.00;4961147;28;20047;-89
2021/06/21 03:09:58;;;;;;;11.82;3.83;;;;;;;19.50;40.30;100042.75;4976785;28;20459;-87
2021/06/21 03:12:28;;;;;;;11.57;4.25;;;;;;;19.68;40.02;100044.53;4993598;28;20052;-90
2021/06/21 03:14:54;;;;;;;10.98;3.95;;;;;;;19.52;39.91;100046.16;4962530;28;20054;-92
2021/06/21 03:17:20;;;;;;;11.73;4.47;;;;;;;19.54;39.89;100035.97;4978527;28;20525;-93
2021/06/21 03:19:46;;;;;;;11.43;4.22;;;;;;;19.67;39.85;100054.56;5011944;28;20050;-94
2021/06/21 03:22:12;;;;;;;13.05;4.10;;;;;;;19.72;39.98;100048.63;5005051;28;20496;-89
2021/06/21 03:24:38;;;;;;;9.30;4.15;;;;;;;19.92;39.91;100058.16;4976803;28;20064;-80
2021/06/21 03:27:05;;;;;;;21.67;4.28;;;;;;;20.08;39.20;100060.06;4993896;28;20046;-83
2021/06/21 03:29:31;;;;;;;12.63;4.35;;;;;;;20.10;39.19;100067.03;4960469;28;20170;-83
2021/06/21 03:31:57;;;;;;;9.98;4.10;;;;;;;20.00;39.43;100047.31;4992277;28;20155;-83
2021/06/21 03:34:24;;;;;;;21.10;5.05;;;;;;;20.22;39.60;100064.00;4976134;28;20090;-86
2021/06/21 03:36:51;;;;;;;11.05;4.60;;;;;;;20.37;39.30;100065.88;4976521;28;20042;-82
2021/06/21 03:39:17;;;;;;;19.55;4.75;;;;;;;20.49;39.22;100065.56;4976244;28;20047;-84
2021/06/21 03:41:44;;;;;;;18.02;5.45;;;;;;;20.46;39.23;100071.31;4976841;28;20046;-82
2021/06/21 03:44:10;;;;;;;16.40;6.22;;;;;;;20.60;38.81;100078.81;4947385;28;20058;-85
2021/06/21 03:46:36;;;;;;;22.17;5.25;;;;;;;20.59;38.80;100058.97;4993510;28;20056;-84
2021/06/21 03:49:01;;;;;;;22.77;6.03;;;;;;;20.74;38.91;100069.16;4978624;28;20038;-87
2021/06/21 03:51:27;;;;;;;19.35;5.45;;;;;;;20.79;39.00;100080.34;4979368;28;20042;-79
2021/06/21 03:53:53;;;;;;;19.77;5.65;;;;;;;20.81;37.94;100065.59;4976279;28;20466;-79
2021/06/21 03:56:19;;;;;;;25.10;6.35;;;;;;;21.01;37.89;100087.81;4976030;28;20083;-82
2021/06/21 03:58:48;;;;;;;31.83;6.35;;;;;;;21.06;37.78;100081.84;4992528;28;20081;-83
2021/06/21 04:01:14;;;;;;;21.77;6.07;;;;;;;21.00;37.19;100080.69;4994939;28;20046;-81
2021/06/21 04:03:40;;;;;;;30.98;5.93;;;;;;;21.22;37.33;100100.88;4962289;28;20505;-85
2021/06/21 04:06:05;;;;;;;26.63;7.55;;;;;;;21.25;37.50;100083.34;4992399;28;20077;-84
2021/06/21 04:08:31;;;;;;;23.23;5.47;;;;;;;21.43;37.50;100097.59;4960719;28;20101;-86
2021/06/21 04:10:57;;;;;;;27.83;5.22;;;;;;;21.40;36.16;100099.81;4992763;28;20076;-85
2021/06/21 04:13:23;;;;;;;40.38;6.47;;;;;;;21.36;36.27;100079.44;4976588;28;20133;-85
2021/06/21 04:15:49;;;;;;;15.73;3.83;;;;;;;21.65;35.47;100106.03;4976506;28;20102;-84
2021/06/21 04:18:16;;;;;;;22.80;4.45;;;;;;;21.40;34.65;100092.53;4992302;28;20074;-83
2021/06/21 04:20:43;;;;;;;15.85;4.15;;;;;;;21.44;35.53;100104.75;4976341;28;20137;-83
2021/06/21 04:23:10;;;;;;;17.38;4.60;;;;;;;21.50;35.91;100109.47;4976235;28;20046;-84
2021/06/21 04:25:36;;;;;;;20.20;4.43;;;;;;;21.37;35.72;100078.44;4975902;28;20390;-83
2021/06/21 04:28:03;;;;;;;22.35;4.32;;;;;;;21.72;35.60;100101.59;4975927;28;20043;-83
2021/06/21 04:30:29;;;;;;;12.98;4.10;;;;;;;21.96;35.34;100117.78;4975600;28;20041;-83
2021/06/21 04:32:55;;;;;;;21.80;4.00;;;;;;;21.90;34.52;100110.34;4959508;28;20412;-82
2021/06/21 04:35:23;;;;;;;14.07;3.38;;;;;;;21.89;34.64;100111.41;4975168;28;20474;-82
2021/06/21 04:37:49;;;;;;;15.00;2.95;;;;;;;21.83;33.57;100103.94;4973307;28;20046;-82
2021/06/21 04:40:17;;;;;;;8.80;2.50;;;;;;;22.01;33.23;100118.13;4957961;28;20050;-84
2021/06/21 04:42:43;;;;;;;12.18;2.78;;;;;;;21.73;31.94;100114.16;4974332;28;20559;-83
2021/06/21 04:45:10;;;;;;;11.52;3.40;;;;;;;21.48;33.35;100111.53;4974985;28;20054;-84
2021/06/21 04:47:36;;;;;;;11.88;2.85;;;;;;;21.53;33.95;100108.28;4978052;28;20108;-83
2021/06/21 04:50:04;;;;;;;12.18;2.58;;;;;;;21.66;33.34;100105.84;4979334;28;20080;-84
2021/06/21 04:52:37;;;;;;;9.40;2.38;;;;;;;21.74;31.87;100110.41;5001611;28;20042;-81
2021/06/21 04:55:04;;;;;;;10.85;2.40;;;;;;;21.78;31.74;100100.91;4990518;28;20058;-81
2021/06/21 04:57:31;;;;;;;8.90;2.25;;;;;;;22.01;31.92;100107.25;4971626;28;20145;-80
2021/06/21 04:59:57;;;;;;;7.03;2.25;;;;;;;22.30;31.96;100117.50;4965785;28;20057;-82
2021/06/21 05:02:23;;;;;;;7.35;2.40;;;;;;;22.44;30.68;100115.84;4997981;28;20505;-82
2021/06/21 05:04:49;;;;;;;3.50;1.95;;;;;;;22.35;30.37;100106.06;4996499;28;20113;-81
2021/06/21 05:07:15;;;;;;;5.70;2.03;;;;;;;22.37;30.38;100114.88;4980228;28;20046;-82
2021/06/21 05:09:42;;;;;;;6.15;2.25;;;;;;;22.10;30.12;100093.56;4979067;28;20499;-82
2021/06/21 05:12:09;;;;;;;7.28;2.60;;;;;;;22.26;30.59;100093.50;4979191;28;20038;-83
2021/06/21 05:14:36;;;;;;;7.63;2.60;;;;;;;22.55;30.82;100114.59;4978994;28;20121;-82
2021/06/21 05:17:07;;;;;;;8.13;2.13;;;;;;;22.71;30.30;100097.25;4978767;28;20065;-81
2021/06/21 05:19:36;;;;;;;4.93;2.40;;;;;;;22.80;30.71;100101.63;4963316;28;20153;-81
2021/06/21 05:22:02;;;;;;;;;;;;;;;23.01;30.42;100107.25;4946982;28;20492;-80
2021/06/21 05:24:28;;;;;;;10.70;1.90;;;;;;;23.08;30.40;100099.19;4978478;28;19917;-82
2021/06/21 05:26:54;;;;;;;3.75;2.03;;;;;;;23.05;30.01;100087.78;4943284;28;20181;-83
2021/06/21 05:29:20;;;;;;;4.88;2.00;;;;;;;23.18;29.97;100105.22;4994132;28;20053;-82
2021/06/21 05:31:46;;;;;;;10.88;1.48;;;;;;;23.02;28.01;100095.31;4941550;28;20039;-83
2021/06/21 05:34:12;;;;;;;12.88;2.15;;;;;;;22.74;28.63;100099.63;4977458;28;20124;-83
2021/06/21 05:36:38;;;;;;;3.20;1.98;;;;;;;22.78;28.76;100098.22;4978564;28;20050;-83
2021/06/21 05:39:04;;;;;;;6.70;1.52;;;;;;;22.75;28.60;100088.56;4978142;28;20050;-84
2021/06/21 05:41:30;;;;;;;9.13;1.40;;;;;;;23.09;28.79;100100.03;4994109;28;20049;-82
2021/06/21 05:43:56;;;;;;;4.55;1.45;;;;;;;23.19;28.69;100096.00;4977874;28;20051;-82
2021/06/21 05:46:22;;;;;;;5.97;1.67;;;;;;;23.22;28.10;100094.78;4978208;28;20085;-82
2021/06/21 05:48:48;;;;;;;6.20;1.95;;;;;;;23.10;28.44;100097.13;4977701;28;20050;-81
2021/06/21 05:51:14;;;;;;;6.30;1.70;;;;;;;23.19;28.66;100101.44;4994048;28;20053;-83
2021/06/21 05:53:40;;;;;;;3.22;1.30;;;;;;;23.38;27.54;100082.84;4978122;28;20061;-83
2021/06/21 05:56:07;;;;;;;5.32;1.30;;;;;;;23.38;27.42;100105.50;4977684;28;20050;-82
2021/06/21 05:58:33;;;;;;;4.05;1.33;;;;;;;23.36;27.67;100101.31;4941921;28;20516;-82
2021/06/21 06:00:59;;;;;;;2.78;1.10;;;;;;;23.46;27.94;100088.22;4956014;28;20490;-81
2021/06/21 06:03:25;;;;;;;15.82;1.85;;;;;;;23.63;27.55;100076.06;4977750;28;20050;-82
2021/06/21 06:05:51;;;;;;;4.85;1.30;;;;;;;23.80;27.69;100086.81;4977853;28;20124;-81
2021/06/21 06:08:19;;;;;;;5.57;1.48;;;;;;;23.98;27.64;100062.66;4978008;28;20050;-81
2021/06/21 06:10:46;;;;;;;4.15;1.40;;;;;;;24.17;26.95;100089.34;4977582;28;20362;-83
2021/06/21 06:13:12;;;;;;;5.00;1.20;;;;;;;24.13;27.67;100081.75;4978581;28;20093;-83
2021/06/21 06:15:39;;;;;;;1.00;1.00;;;;;;;24.18;27.35;100080.16;4961821;28;20077;-82
2021/06/21 06:18:05;;;;;;;2.35;1.00;;;;;;;24.27;27.28;100088.22;4961362;28;20528;-83
2021/06/21 06:20:31;;;;;;;5.57;1.33;;;;;;;24.34;27.06;100092.72;4977212;28;20493;-83
2021/06/21 06:22:58;;;;;;;4.60;1.30;;;;;;;24.36;27.22;100079.69;4942649;28;20066;-83
2021/06/21 06:25:25;;;;;;;4.25;1.40;;;;;;;24.44;27.34;100082.31;4994000;28;20528;-83
2021/06/21 06:27:51;;;;;;;3.15;1.23;;;;;;;24.36;27.50;100087.03;4978285;28;20062;-84
2021/06/21 06:30:18;;;;;;;3.05;1.23;;;;;;;24.61;27.55;100087.53;4961476;28;20488;-83
2021/06/21 06:32:44;;;;;;;2.67;1.30;;;;;;;24.65;27.02;100086.09;4961476;28;20093;-83
2021/06/21 06:35:10;;;;;;;5.97;1.17;;;;;;;24.86;26.91;100085.22;4977402;28;20149;-83
2021/06/21 06:37:45;;;;;;;4.22;1.65;;;;;;;24.86;26.12;100087.97;4963026;28;20042;-83
2021/06/21 06:40:12;;;;;;;5.22;1.25;;;;;;;24.84;26.06;100098.25;4961305;28;20505;-83
2021/06/21 06:42:38;;;;;;;8.60;1.40;;;;;;;24.91;26.37;100096.44;4961321;28;20062;-83
2021/06/21 06:45:05;;;;;;;4.30;0.90;;;;;;;24.86;25.71;100099.78;4961901;28;20556;-83
2021/06/21 06:47:32;;;;;;;3.42;0.85;;;;;;;24.72;25.94;100097.94;4943012;28;20034;-81
2021/06/21 06:49:58;;;;;;;5.53;1.05;;;;;;;24.56;26.25;100095.47;4956205;28;20045;-83
2021/06/21 06:52:25;;;;;;;8.10;1.15;;;;;;;24.65;26.85;100107.97;4977764;28;20092;-81
2021/06/21 06:57:34;;;;;;;1.10;0.90;;;;;;;24.60;26.65;100083.13;4979747;28;20049;-82
2021/06/21 07:00:00;;;;;;;3.97;1.08;;;;;;;24.86;26.72;100115.31;4977563;28;20046;-82
2021/06/21 07:02:26;;;;;;;4.32;1.10;;;;;;;24.52;26.84;100114.13;4976781;28;20054;-82
2021/06/21 07:04:52;;;;;;;5.70;1.10;;;;;;;24.74;27.01;100101.31;4992849;28;20520;-82
2021/06/21 07:07:18;;;;;;;6.93;1.10;;;;;;;25.15;26.93;100097.91;4961322;28;20046;-82
2021/06/21 07:09:44;;;;;;;7.40;1.35;;;;;;;25.25;26.20;100098.41;4993121;28;20042;-83
2021/06/21 07:12:11;;;;;;;2.15;1.30;;;;;;;25.05;26.58;100084.56;4978346;28;20047;-81
2021/06/21 07:14:37;;;;;;;2.00;1.08;;;;;;;25.19;26.56;100099.19;4978319;28;20042;-81
2021/06/21 07:17:04;;;;;;;7.47;1.35;;;;;;;25.14;26.87;100079.81;4959785;28;20046;-82
2021/06/21 07:19:29;;;;;;;2.38;1.35;;;;;;;25.31;26.07;100096.75;4995293;28;20054;-82
2021/06/21 07:21:55;;;;;;;2.42;1.10;;;;;;;25.58;26.46;100108.75;4979353;28;20133;-83
2021/06/21 07:24:21;;;;;;;2.80;1.00;;;;;;;25.74;25.73;100110.28;4977835;28;20046;-81
2021/06/21 07:26:48;;;;;;;1.15;1.10;;;;;;;25.88;25.78;100104.72;4977387;28;20046;-82
2021/06/21 07:29:14;;;;;;;5.00;1.25;;;;;;;26.02;26.52;100102.84;4961392;28;20053;-82
2021/06/21 07:31:40;;;;;;;1.60;1.13;;;;;;;26.23;26.00;100096.41;4976677;28;20095;-83
2021/06/21 07:34:06;;;;;;;4.82;0.90;;;;;;;26.40;25.40;100097.72;4976181;28;20053;-83
2021/06/21 07:36:32;;;;;;;3.70;0.90;;;;;;;26.44;25.52;100105.50;4960500;28;20505;-85
2021/06/21 07:38:58;;;;;;;2.28;1.00;;;;;;;26.40;25.41;100119.66;4992451;28;20414;-83
2021/06/21 07:41:25;;;;;;;4.18;1.00;;;;;;;25.94;25.48;100124.94;4976936;28;20054;-81
2021/06/21 07:43:51;;;;;;;3.13;1.02;;;;;;;26.00;25.76;100124.16;4976196;28;20128;-83
2021/06/21 07:46:17;;;;;;;2.35;1.00;;;;;;;26.35;25.48;100118.56;4978337;28;20549;-82
2021/06/21 07:48:43;;;;;;;9.18;1.15;;;;;;;26.34;25.36;100120.47;4976828;28;20482;-83
2021/06/21 07:51:13;;;;;;;1.75;0.70;;;;;;;26.46;25.11;100114.41;4979263;28;20056;-83
2021/06/21 07:53:39;;;;;;;;;;;;;;;26.72;24.98;100128.16;4977677;28;20042;-82
2021/06/21 07:56:05;;;;;;;7.93;1.00;;;;;;;26.86;24.98;100107.94;4991800;28;20448;-83
2021/06/21 07:58:32;;;;;;;3.35;1.00;;;;;;;27.19;24.98;100107.09;4959860;28;20084;-83
2021/06/21 08:00:58;;;;;;;3.13;1.10;;;;;;;27.73;24.52;100125.19;4992216;28;20488;-84
2021/06/21 08:03:25;;;;;;;2.53;0.90;;;;;;;27.75;24.45;100112.09;4975617;28;20042;-84
2021/06/21 08:05:51;;;;;;;5.18;1.25;;;;;;;27.84;24.42;100105.31;4992131;28;20043;-84
2021/06/21 08:08:18;;;;;;;16.48;1.52;;;;;;;27.91;24.71;100109.91;4943557;28;20129;-84
2021/06/21 08:10:45;;;;;;;2.25;0.90;;;;;;;27.55;24.65;100103.03;4975689;28;20042;-83
2021/06/21 08:13:11;;;;;;;2.25;1.20;;;;;;;27.62;25.05;100092.88;4991930;28;20118;-84
2021/06/21 08:15:37;;;;;;;3.10;1.30;;;;;;;28.13;24.56;100107.72;4976344;28;20092;-83
2021/06/21 08:18:04;;;;;;;8.82;1.45;;;;;;;28.55;24.74;100104.34;4960508;28;20046;-83
2021/06/21 08:20:31;;;;;;;10.32;1.35;;;;;;;28.91;24.88;100105.53;4977894;28;20050;-83
2021/06/21 08:22:57;;;;;;;7.38;1.45;;;;;;;29.17;24.30;100118.28;4980879;28;20157;-83
2021/06/21 08:25:23;;;;;;;2.85;1.27;;;;;;;29.26;23.95;100110.56;4980348;28;20054;-83
2021/06/21 08:27:49;;;;;;;3.45;1.33;;;;;;;28.39;24.46;100107.59;4997023;28;20054;-83
2021/06/21 08:30:15;;;;;;;2.90;1.98;;;;;;;27.93;25.39;100110.56;4979701;28;20050;-85
2021/06/21 08:32:41;;;;;;;1.85;1.05;;;;;;;27.85;25.73;100119.88;4980295;28;20046;-84
2021/06/21 08:35:08;;;;;;;6.05;1.65;;;;;;;28.42;25.06;100114.56;4963543;28;20038;-84
2021/06/21 08:37:35;;;;;;;4.78;1.42;;;;;;;28.49;24.61;100124.47;4995219;28;20050;-83
2021/06/21 08:40:02;;;;;;;1.55;1.05;;;;;;;28.36;24.47;100091.53;4979262;28;20057;-84
2021/06/21 08:42:28;;;;;;;2.40;1.20;;;;;;;28.60;23.97;100098.16;4979252;28;20078;-83
2021/06/21 08:44:54;;;;;;;1.15;0.82;;;;;;;28.65;23.97;100106.59;4963560;28;20135;-84
2021/06/21 08:47:21;;;;;;;1.02;0.93;;;;;;;28.78;23.95;100120.25;4963635;28;20042;-83
2021/06/21 08:49:48;;;;;;;5.07;1.10;;;;;;;28.94;24.29;100115.28;4947483;28;20088;-83
2021/06/21 08:52:16;;;;;;;3.05;1.10;;;;;;;28.40;23.85;100108.44;4947047;28;20045;-83
2021/06/21 08:54:42;;;;;;;2.83;1.00;;;;;;;28.55;23.79;100103.50;4962877;28;20046;-83
2021/06/21 08:57:09;;;;;;;1.85;1.13;;;;;;;28.75;23.91;100104.19;4946740;28;20081;-85
2021/06/21 08:59:35;;;;;;;1.55;1.00;;;;;;;28.52;23.58;100106.69;4962721;28;20444;-83
2021/06/21 09:02:01;;;;;;;1.95;1.15;;;;;;;28.92;22.68;100098.13;4962738;28;20425;-83
2021/06/21 09:04:28;;;;;;;4.95;1.58;;;;;;;29.22;22.91;100096.41;4978556;28;20042;-83
2021/06/21 09:07:12;;;;;;;1.33;1.13;;;;;;;29.17;23.40;100104.50;4962878;28;20161;-83
2021/06/21 09:09:38;;;;;;;7.18;1.77;;;;;;;28.77;23.32;100102.06;4949054;28;20410;-82
2021/06/21 09:12:05;;;;;;;2.63;1.20;;;;;;;28.19;24.16;100112.34;4960407;28;20043;-82
2021/06/21 09:14:31;;;;;;;2.92;1.10;;;;;;;28.05;24.47;100103.31;4962689;28;20134;-81
2021/06/21 09:17:08;;;;;;;4.43;1.10;;;;;;;28.56;24.29;100108.78;4963031;28;20050;-81
2021/06/21 09:19:49;;;;;;;7.28;1.30;;;;;;;28.96;23.91;100082.84;4979910;28;20056;-82
2021/06/21 09:22:31;;;;;;;3.30;1.30;;;;;;;29.03;24.20;100094.69;4960728;28;20391;-82
2021/06/21 09:25:10;;;;;;;3.03;1.08;;;;;;;29.04;24.80;100093.63;4978664;28;20042;-83
2021/06/21 09:27:38;;;;;;;14.52;1.85;;;;;;;29.20;23.49;100079.28;4979377;28;20528;-82
2021/06/21 09:30:09;;;;;;;6.25;1.25;;;;;;;28.61;23.31;100077.00;4962741;28;20054;-82
2021/06/21 09:32:48;;;;;;;3.08;1.10;;;;;;;28.83;23.53;100081.06;4962267;28;20046;-82
2021/06/21 09:35:29;;;;;;;4.07;1.23;;;;;;;29.53;22.75;100080.84;4962220;28;20477;-81
2021/06/21 09:38:01;;;;;;;3.05;0.98;;;;;;;28.92;22.53;100068.69;4994503;28;20054;-82
2021/06/21 09:40:38;;;;;;;1.85;1.05;;;;;;;28.96;23.27;100074.59;4961962;28;20524;-82
2021/06/21 09:43:22;;;;;;;0.97;0.97;;;;;;;29.44;22.77;100071.19;4950211;28;20529;-82
2021/06/21 09:46:13;;;;;;;6.07;1.58;;;;;;;29.86;22.97;100076.88;4958298;28;20137;-83
2021/06/21 09:48:53;;;;;;;2.40;1.48;;;;;;;29.60;22.68;100067.88;4956820;28;20061;-84
2021/06/21 09:51:34;;;;;;;10.13;1.65;;;;;;;29.60;22.55;100064.25;4978396;28;20490;-84
2021/06/21 09:54:10;;;;;;;4.53;1.20;;;;;;;30.49;22.61;100054.41;4931216;28;20042;-84
2021/06/21 09:56:43;;;;;;;3.72;1.20;;;;;;;30.93;21.77;100074.31;4979844;28;20042;-83
2021/06/21 09:59:20;;;;;;;1.38;1.20;;;;;;;30.24;21.70;100076.66;4995391;28;20529;-83
2021/06/21 10:02:04;;;;;;;5.20;0.90;;;;;;;29.60;22.34;100059.63;4958735;28;20051;-84
2021/06/21 10:04:30;;;;;;;4.13;1.00;;;;;;;29.24;22.71;100066.75;4964218;28;20046;-83
2021/06/21 10:06:56;;;;;;;4.50;1.20;;;;;;;29.26;23.15;100063.75;4993933;28;20053;-84
2021/06/21 10:09:22;;;;;;;3.05;1.20;;;;;;;29.65;23.09;100061.69;4945984;28;20038;-84
2021/06/21 10:11:48;;;;;;;4.32;1.20;;;;;;;29.64;22.51;100058.09;4994025;28;20109;-84
2021/06/21 10:14:19;;;;;;;2.63;1.20;;;;;;;28.86;23.16;100063.28;4978033;28;20069;-84
2021/06/21 10:16:47;;;;;;;5.30;1.30;;;;;;;28.50;23.72;100064.81;4973114;28;20069;-83
2021/06/21 10:19:13;;;;;;;5.10;1.38;;;;;;;28.61;23.75;100055.00;4977743;28;20077;-84
2021/06/21 10:21:42;;;;;;;4.45;1.20;;;;;;;29.38;23.19;100064.72;4961966;28;20034;-86
2021/06/21 10:24:08;;;;;;;;;;;;;;;29.99;22.55;100076.72;4977878;28;20505;-84
2021/06/21 10:26:37;;;;;;;3.20;1.20;;;;;;;29.45;22.37;100056.34;4977503;28;19918;-84
2021/06/21 10:29:04;;;;;;;5.32;1.27;;;;;;;28.98;23.32;100061.50;4976878;28;20046;-83
2021/06/21 10:31:30;;;;;;;3.33;1.27;;;;;;;28.61;24.04;100055.84;4977487;28;20070;-84
2021/06/21 10:33:57;;;;;;;4.72;1.40;;;;;;;28.86;23.54;100063.28;4977141;28;20049;-83
2021/06/21 10:36:44;;;;;;;6.65;1.10;;;;;;;28.66;23.33;100050.53;4993102;28;20139;-83
2021/06/21 10:39:19;;;;;;;5.55;1.17;;;;;;;28.02;23.69;100048.78;4995830;28;20047;-85
2021/06/21 10:42:10;;;;;;;2.85;1.27;;;;;;;28.25;23.59;100056.50;4961395;28;20145;-84
2021/06/21 10:44:46;;;;;;;6.55;0.90;;;;;;;28.73;23.13;100059.53;4956841;28;20051;-84
2021/06/21 10:47:35;;;;;;;5.45;1.20;;;;;;;29.66;22.59;100050.41;4958014;28;20055;-84
2021/06/21 10:50:16;;;;;;;5.15;1.50;;;;;;;31.16;21.63;100057.75;4974651;28;20085;-84
2021/06/21 10:52:49;;;;;;;1.10;1.00;;;;;;;31.17;21.09;100053.06;4974859;28;20185;-84
2021/06/21 10:57:51;;;;;;;4.22;0.95;;;;;;;30.93;21.57;100046.72;4957029;28;20047;-84
2021/06/21 11:00:19;;;;;;;1.42;1.08;;;;;;;31.89;21.40;100036.16;4924710;28;20125;-84
2021/06/21 11:02:44;;;;;;;6.13;1.45;;;;;;;32.82;20.76;100042.31;4957612;28;20039;-85
2021/06/21 11:05:10;;;;;;;2.60;1.10;;;;;;;33.30;20.15;100033.41;4957471;28;20395;-84
2021/06/21 11:07:37;;;;;;;3.50;1.00;;;;;;;33.00;19.42;100044.03;4957280;28;20042;-84
2021/06/21 11:10:06;;;;;;;2.90;1.30;;;;;;;32.69;19.74;100045.44;4958972;28;20038;-86
2021/06/21 11:12:33;;;;;;;4.63;1.50;;;;;;;32.75;19.68;100047.19;4959394;28;20054;-84
2021/06/21 11:15:09;;;;;;;5.00;1.20;;;;;;;33.40;18.96;100048.47;4957998;28;20042;-82
2021/06/21 11:17:51;;;;;;;5.93;0.95;;;;;;;33.24;18.70;100044.66;4974263;28;20045;-83
2021/06/21 11:20:30;;;;;;;9.40;1.30;;;;;;;33.86;18.84;100025.00;4974226;28;20058;-83
2021/06/21 11:22:59;;;;;;;2.95;1.30;;;;;;;34.33;18.50;100043.81;4972839;28;20141;-85
2021/06/21 11:25:32;;;;;;;2.78;1.10;;;;;;;34.27;18.75;100036.56;4972911;28;20073;-82
2021/06/21 11:28:00;;;;;;;5.95;1.27;;;;;;;34.48;18.20;100024.53;4973508;28;20046;-83
2021/06/21 11:30:48;;;;;;;1.25;1.10;;;;;;;34.99;18.11;100033.34;4957984;28;20093;-84
2021/06/21 11:33:15;;;;;;;3.33;1.15;;;;;;;34.65;18.09;100026.41;4975660;28;20054;-83
2021/06/21 11:35:56;;;;;;;3.28;0.98;;;;;;;34.54;17.87;100026.31;4959688;28;20051;-84
2021/06/21 11:38:23;;;;;;;1.30;1.20;;;;;;;34.40;17.80;100027.81;4958026;28;20038;-85